sensor_id;sensor_type;location;lat;lon;timestamp;P1;durP1;ratioP1;P2;durP2;ratioP2
68273;SDS011;55104;47.356;19.448;2024-01-07T00:01:22;11.20;;;5.63;;
68273;SDS011;55104;47.356;19.448;2024-01-07T00:04:24;13.35;;;5.85;;
68273;SDS011;55104;47.356;19.448;2024-01-07T00:07:26;14.48;;;6.10;;
68273;SDS011;55104;47.356;19.448;2024-01-07T00:10:29;15.23;;;4.38;;
68273;SDS011;55104;47.356;19.448;2024-01-07T00:13:31;14.38;;;4.90;;
68273;SDS011;55104;47.356;19.448;2024-01-07T00:16:33;12.73;;;4.35;;
68273;SDS011;55104;47.356;19.448;2024-01-07T00:19:36;13.48;;;5.20;;
68273;SDS011;55104;47.356;19.448;2024-01-07T00:22:39;10.57;;;5.17;;
68273;SDS011;55104;47.356;19.448;2024-01-07T00:25:41;12.20;;;4.20;;
68273;SDS011;55104;47.356;19.448;2024-01-07T00:28:43;14.48;;;5.03;;
68273;SDS011;55104;47.356;19.448;2024-01-07T00:31:45;14.13;;;4.83;;
68273;SDS011;55104;47.356;19.448;2024-01-07T00:34:48;14.07;;;5.28;;
68273;SDS011;55104;47.356;19.448;2024-01-07T00:37:56;17.10;;;5.93;;
68273;SDS011;55104;47.356;19.448;2024-01-07T00:40:59;13.45;;;5.05;;
68273;SDS011;55104;47.356;19.448;2024-01-07T00:44:01;10.38;;;4.97;;
68273;SDS011;55104;47.356;19.448;2024-01-07T00:47:03;11.77;;;5.32;;
68273;SDS011;55104;47.356;19.448;2024-01-07T00:50:05;15.18;;;4.78;;
68273;SDS011;55104;47.356;19.448;2024-01-07T00:53:08;12.83;;;5.90;;
68273;SDS011;55104;47.356;19.448;2024-01-07T00:56:10;14.52;;;3.83;;
68273;SDS011;55104;47.356;19.448;2024-01-07T00:59:12;8.52;;;4.03;;
68273;SDS011;55104;47.356;19.448;2024-01-07T01:02:14;10.83;;;4.60;;
68273;SDS011;55104;47.356;19.448;2024-01-07T01:05:16;8.35;;;3.78;;
68273;SDS011;55104;47.356;19.448;2024-01-07T01:08:19;14.77;;;4.90;;
68273;SDS011;55104;47.356;19.448;2024-01-07T01:11:21;13.73;;;5.18;;
68273;SDS011;55104;47.356;19.448;2024-01-07T01:14:24;10.48;;;5.15;;
68273;SDS011;55104;47.356;19.448;2024-01-07T01:17:26;8.88;;;3.63;;
68273;SDS011;55104;47.356;19.448;2024-01-07T01:20:28;10.80;;;4.50;;
68273;SDS011;55104;47.356;19.448;2024-01-07T01:23:31;12.23;;;4.80;;
68273;SDS011;55104;47.356;19.448;2024-01-07T01:26:33;8.80;;;3.58;;
68273;SDS011;55104;47.356;19.448;2024-01-07T01:29:35;13.27;;;4.78;;
68273;SDS011;55104;47.356;19.448;2024-01-07T01:32:38;13.53;;;5.00;;
68273;SDS011;55104;47.356;19.448;2024-01-07T01:35:41;11.13;;;4.65;;
68273;SDS011;55104;47.356;19.448;2024-01-07T01:38:43;7.05;;;3.75;;
68273;SDS011;55104;47.356;19.448;2024-01-07T01:41:45;11.07;;;5.05;;
68273;SDS011;55104;47.356;19.448;2024-01-07T01:44:47;11.13;;;5.57;;
68273;SDS011;55104;47.356;19.448;2024-01-07T01:47:50;9.60;;;3.42;;
68273;SDS011;55104;47.356;19.448;2024-01-07T01:50:54;15.48;;;4.30;;
68273;SDS011;55104;47.356;19.448;2024-01-07T01:54:00;7.57;;;3.63;;
68273;SDS011;55104;47.356;19.448;2024-01-07T01:57:04;11.18;;;4.32;;
68273;SDS011;55104;47.356;19.448;2024-01-07T02:00:07;9.75;;;4.30;;
68273;SDS011;55104;47.356;19.448;2024-01-07T02:03:10;8.13;;;3.93;;
68273;SDS011;55104;47.356;19.448;2024-01-07T02:06:13;11.02;;;3.60;;
68273;SDS011;55104;47.356;19.448;2024-01-07T02:09:15;8.25;;;3.20;;
68273;SDS011;55104;47.356;19.448;2024-01-07T02:12:17;10.60;;;4.55;;
68273;SDS011;55104;47.356;19.448;2024-01-07T02:15:19;8.38;;;3.55;;
68273;SDS011;55104;47.356;19.448;2024-01-07T02:18:22;8.52;;;3.63;;
68273;SDS011;55104;47.356;19.448;2024-01-07T02:21:24;10.27;;;3.78;;
68273;SDS011;55104;47.356;19.448;2024-01-07T02:24:27;10.47;;;4.03;;
68273;SDS011;55104;47.356;19.448;2024-01-07T02:27:29;10.13;;;3.75;;
68273;SDS011;55104;47.356;19.448;2024-01-07T02:30:31;6.78;;;2.97;;
68273;SDS011;55104;47.356;19.448;2024-01-07T02:33:33;8.87;;;3.37;;
68273;SDS011;55104;47.356;19.448;2024-01-07T02:36:36;11.25;;;4.15;;
68273;SDS011;55104;47.356;19.448;2024-01-07T02:39:38;8.95;;;2.88;;
68273;SDS011;55104;47.356;19.448;2024-01-07T02:42:40;9.98;;;4.00;;
68273;SDS011;55104;47.356;19.448;2024-01-07T02:45:43;11.90;;;3.72;;
68273;SDS011;55104;47.356;19.448;2024-01-07T02:48:45;6.75;;;3.45;;
68273;SDS011;55104;47.356;19.448;2024-01-07T02:51:48;12.20;;;3.40;;
68273;SDS011;55104;47.356;19.448;2024-01-07T02:54:51;10.73;;;3.87;;
68273;SDS011;55104;47.356;19.448;2024-01-07T02:57:53;9.45;;;3.70;;
68273;SDS011;55104;47.356;19.448;2024-01-07T03:00:56;7.72;;;3.22;;
68273;SDS011;55104;47.356;19.448;2024-01-07T03:03:58;13.23;;;4.80;;
68273;SDS011;55104;47.356;19.448;2024-01-07T03:07:01;8.10;;;2.92;;
68273;SDS011;55104;47.356;19.448;2024-01-07T03:10:03;10.15;;;4.22;;
68273;SDS011;55104;47.356;19.448;2024-01-07T03:13:07;7.72;;;2.45;;
68273;SDS011;55104;47.356;19.448;2024-01-07T03:16:18;11.27;;;3.95;;
68273;SDS011;55104;47.356;19.448;2024-01-07T03:19:22;10.32;;;3.47;;
68273;SDS011;55104;47.356;19.448;2024-01-07T03:22:24;11.55;;;3.85;;
68273;SDS011;55104;47.356;19.448;2024-01-07T03:25:27;7.97;;;3.50;;
68273;SDS011;55104;47.356;19.448;2024-01-07T03:28:29;7.70;;;3.15;;
68273;SDS011;55104;47.356;19.448;2024-01-07T03:31:31;9.20;;;3.17;;
68273;SDS011;55104;47.356;19.448;2024-01-07T03:34:34;7.00;;;2.47;;
68273;SDS011;55104;47.356;19.448;2024-01-07T03:37:36;11.48;;;3.80;;
68273;SDS011;55104;47.356;19.448;2024-01-07T03:40:38;10.52;;;3.45;;
68273;SDS011;55104;47.356;19.448;2024-01-07T03:43:40;8.38;;;2.92;;
68273;SDS011;55104;47.356;19.448;2024-01-07T03:46:42;5.93;;;2.70;;
68273;SDS011;55104;47.356;19.448;2024-01-07T03:49:45;9.73;;;3.40;;
68273;SDS011;55104;47.356;19.448;2024-01-07T03:52:47;5.45;;;1.83;;
68273;SDS011;55104;47.356;19.448;2024-01-07T03:55:49;7.93;;;2.23;;
68273;SDS011;55104;47.356;19.448;2024-01-07T03:58:51;4.78;;;1.92;;
68273;SDS011;55104;47.356;19.448;2024-01-07T04:01:54;5.25;;;2.17;;
68273;SDS011;55104;47.356;19.448;2024-01-07T04:04:58;5.70;;;1.83;;
68273;SDS011;55104;47.356;19.448;2024-01-07T04:08:01;4.68;;;1.92;;
68273;SDS011;55104;47.356;19.448;2024-01-07T04:11:04;4.85;;;1.83;;
68273;SDS011;55104;47.356;19.448;2024-01-07T04:14:06;5.85;;;2.25;;
68273;SDS011;55104;47.356;19.448;2024-01-07T04:17:08;4.03;;;1.23;;
68273;SDS011;55104;47.356;19.448;2024-01-07T04:20:14;11.82;;;2.60;;
68273;SDS011;55104;47.356;19.448;2024-01-07T04:23:16;4.82;;;1.55;;
68273;SDS011;55104;47.356;19.448;2024-01-07T04:26:18;5.73;;;1.77;;
68273;SDS011;55104;47.356;19.448;2024-01-07T04:29:21;4.85;;;1.65;;
68273;SDS011;55104;47.356;19.448;2024-01-07T04:32:22;6.40;;;2.30;;
68273;SDS011;55104;47.356;19.448;2024-01-07T04:35:25;6.13;;;2.07;;
68273;SDS011;55104;47.356;19.448;2024-01-07T04:38:27;5.00;;;1.90;;
68273;SDS011;55104;47.356;19.448;2024-01-07T04:41:29;7.15;;;3.13;;
68273;SDS011;55104;47.356;19.448;2024-01-07T04:44:31;6.22;;;2.40;;
68273;SDS011;55104;47.356;19.448;2024-01-07T04:47:34;7.20;;;2.70;;
68273;SDS011;55104;47.356;19.448;2024-01-07T04:50:36;5.72;;;1.98;;
68273;SDS011;55104;47.356;19.448;2024-01-07T04:53:39;7.95;;;1.85;;
68273;SDS011;55104;47.356;19.448;2024-01-07T04:56:41;5.93;;;2.37;;
68273;SDS011;55104;47.356;19.448;2024-01-07T04:59:43;5.00;;;1.73;;
68273;SDS011;55104;47.356;19.448;2024-01-07T05:02:46;5.80;;;2.38;;
68273;SDS011;55104;47.356;19.448;2024-01-07T05:05:48;5.97;;;2.27;;
68273;SDS011;55104;47.356;19.448;2024-01-07T05:08:51;5.82;;;2.67;;
68273;SDS011;55104;47.356;19.448;2024-01-07T05:11:53;6.18;;;2.42;;
68273;SDS011;55104;47.356;19.448;2024-01-07T05:14:55;8.73;;;1.92;;
68273;SDS011;55104;47.356;19.448;2024-01-07T05:17:58;4.38;;;1.40;;
68273;SDS011;55104;47.356;19.448;2024-01-07T05:21:00;4.15;;;1.50;;
68273;SDS011;55104;47.356;19.448;2024-01-07T05:24:02;4.40;;;1.67;;
68273;SDS011;55104;47.356;19.448;2024-01-07T05:27:04;3.43;;;1.47;;
68273;SDS011;55104;47.356;19.448;2024-01-07T05:30:07;4.88;;;1.48;;
68273;SDS011;55104;47.356;19.448;2024-01-07T05:33:10;3.17;;;0.90;;
68273;SDS011;55104;47.356;19.448;2024-01-07T05:36:12;3.73;;;1.23;;
68273;SDS011;55104;47.356;19.448;2024-01-07T05:39:14;7.20;;;1.83;;
68273;SDS011;55104;47.356;19.448;2024-01-07T05:42:17;4.78;;;1.20;;
68273;SDS011;55104;47.356;19.448;2024-01-07T05:45:19;7.25;;;1.80;;
68273;SDS011;55104;47.356;19.448;2024-01-07T05:48:22;4.35;;;1.60;;
68273;SDS011;55104;47.356;19.448;2024-01-07T05:51:25;4.07;;;0.98;;
68273;SDS011;55104;47.356;19.448;2024-01-07T05:54:27;5.25;;;1.65;;
68273;SDS011;55104;47.356;19.448;2024-01-07T05:57:33;3.20;;;1.03;;
68273;SDS011;55104;47.356;19.448;2024-01-07T06:00:35;4.30;;;1.50;;
68273;SDS011;55104;47.356;19.448;2024-01-07T06:03:37;5.07;;;1.08;;
68273;SDS011;55104;47.356;19.448;2024-01-07T06:06:39;4.20;;;1.17;;
68273;SDS011;55104;47.356;19.448;2024-01-07T06:09:42;2.95;;;1.15;;
68273;SDS011;55104;47.356;19.448;2024-01-07T06:12:44;2.60;;;0.70;;
68273;SDS011;55104;47.356;19.448;2024-01-07T06:15:47;5.03;;;1.50;;
68273;SDS011;55104;47.356;19.448;2024-01-07T06:18:49;2.55;;;1.02;;
68273;SDS011;55104;47.356;19.448;2024-01-07T06:21:51;4.35;;;1.13;;
68273;SDS011;55104;47.356;19.448;2024-01-07T06:24:54;3.65;;;1.13;;
68273;SDS011;55104;47.356;19.448;2024-01-07T06:27:56;4.27;;;1.03;;
68273;SDS011;55104;47.356;19.448;2024-01-07T06:30:58;3.65;;;1.55;;
68273;SDS011;55104;47.356;19.448;2024-01-07T06:34:01;7.28;;;1.65;;
68273;SDS011;55104;47.356;19.448;2024-01-07T06:37:03;3.23;;;1.00;;
68273;SDS011;55104;47.356;19.448;2024-01-07T06:40:06;4.35;;;1.42;;
68273;SDS011;55104;47.356;19.448;2024-01-07T06:43:09;4.65;;;1.60;;
68273;SDS011;55104;47.356;19.448;2024-01-07T06:46:11;4.13;;;1.70;;
68273;SDS011;55104;47.356;19.448;2024-01-07T06:49:13;2.58;;;1.05;;
68273;SDS011;55104;47.356;19.448;2024-01-07T06:52:15;5.25;;;1.08;;
68273;SDS011;55104;47.356;19.448;2024-01-07T06:55:18;4.00;;;1.52;;
68273;SDS011;55104;47.356;19.448;2024-01-07T06:58:20;3.80;;;0.97;;
68273;SDS011;55104;47.356;19.448;2024-01-07T07:01:22;2.60;;;0.85;;
68273;SDS011;55104;47.356;19.448;2024-01-07T07:04:27;7.20;;;1.15;;
68273;SDS011;55104;47.356;19.448;2024-01-07T07:07:30;8.93;;;1.57;;
68273;SDS011;55104;47.356;19.448;2024-01-07T07:10:32;5.97;;;1.10;;
68273;SDS011;55104;47.356;19.448;2024-01-07T07:13:34;5.32;;;1.15;;
68273;SDS011;55104;47.356;19.448;2024-01-07T07:16:37;2.50;;;0.73;;
68273;SDS011;55104;47.356;19.448;2024-01-07T07:19:39;3.63;;;1.17;;
68273;SDS011;55104;47.356;19.448;2024-01-07T07:22:46;4.00;;;1.30;;
68273;SDS011;55104;47.356;19.448;2024-01-07T07:25:48;3.95;;;1.27;;
68273;SDS011;55104;47.356;19.448;2024-01-07T07:28:50;3.23;;;1.13;;
68273;SDS011;55104;47.356;19.448;2024-01-07T07:31:53;4.15;;;1.45;;
68273;SDS011;55104;47.356;19.448;2024-01-07T07:34:55;3.47;;;1.33;;
68273;SDS011;55104;47.356;19.448;2024-01-07T07:37:57;2.57;;;0.97;;
68273;SDS011;55104;47.356;19.448;2024-01-07T07:41:00;2.17;;;0.73;;
68273;SDS011;55104;47.356;19.448;2024-01-07T07:44:02;2.42;;;0.70;;
68273;SDS011;55104;47.356;19.448;2024-01-07T07:47:05;3.05;;;1.13;;
68273;SDS011;55104;47.356;19.448;2024-01-07T07:50:07;3.78;;;1.15;;
68273;SDS011;55104;47.356;19.448;2024-01-07T07:53:10;2.72;;;0.85;;
68273;SDS011;55104;47.356;19.448;2024-01-07T07:56:12;3.85;;;1.20;;
68273;SDS011;55104;47.356;19.448;2024-01-07T07:59:14;4.33;;;1.10;;
68273;SDS011;55104;47.356;19.448;2024-01-07T08:02:18;1.73;;;0.63;;
68273;SDS011;55104;47.356;19.448;2024-01-07T08:05:20;5.20;;;1.30;;
68273;SDS011;55104;47.356;19.448;2024-01-07T08:08:22;4.57;;;1.20;;
68273;SDS011;55104;47.356;19.448;2024-01-07T08:11:24;3.95;;;1.65;;
68273;SDS011;55104;47.356;19.448;2024-01-07T08:14:26;1.85;;;0.60;;
68273;SDS011;55104;47.356;19.448;2024-01-07T08:17:28;4.35;;;1.20;;
68273;SDS011;55104;47.356;19.448;2024-01-07T08:20:31;2.83;;;0.88;;
68273;SDS011;55104;47.356;19.448;2024-01-07T08:23:33;3.97;;;1.35;;
68273;SDS011;55104;47.356;19.448;2024-01-07T08:26:35;5.32;;;3.17;;
68273;SDS011;55104;47.356;19.448;2024-01-07T08:29:38;3.23;;;1.40;;
68273;SDS011;55104;47.356;19.448;2024-01-07T08:32:40;3.35;;;0.70;;
68273;SDS011;55104;47.356;19.448;2024-01-07T08:35:43;4.00;;;0.90;;
68273;SDS011;55104;47.356;19.448;2024-01-07T08:38:45;3.97;;;1.73;;
68273;SDS011;55104;47.356;19.448;2024-01-07T08:41:47;5.30;;;1.77;;
68273;SDS011;55104;47.356;19.448;2024-01-07T08:44:50;4.72;;;1.30;;
68273;SDS011;55104;47.356;19.448;2024-01-07T08:47:52;4.78;;;1.15;;
68273;SDS011;55104;47.356;19.448;2024-01-07T08:50:55;4.72;;;1.70;;
68273;SDS011;55104;47.356;19.448;2024-01-07T08:53:58;2.85;;;1.20;;
68273;SDS011;55104;47.356;19.448;2024-01-07T08:57:01;4.07;;;1.35;;
68273;SDS011;55104;47.356;19.448;2024-01-07T09:00:03;4.20;;;1.23;;
68273;SDS011;55104;47.356;19.448;2024-01-07T09:03:07;4.22;;;1.38;;
68273;SDS011;55104;47.356;19.448;2024-01-07T09:06:09;4.70;;;1.05;;
68273;SDS011;55104;47.356;19.448;2024-01-07T09:09:12;6.83;;;1.67;;
68273;SDS011;55104;47.356;19.448;2024-01-07T09:12:14;4.47;;;1.55;;
68273;SDS011;55104;47.356;19.448;2024-01-07T09:15:17;3.97;;;1.45;;
68273;SDS011;55104;47.356;19.448;2024-01-07T09:18:20;6.10;;;1.73;;
68273;SDS011;55104;47.356;19.448;2024-01-07T09:21:23;3.75;;;1.20;;
68273;SDS011;55104;47.356;19.448;2024-01-07T09:24:26;3.65;;;1.30;;
68273;SDS011;55104;47.356;19.448;2024-01-07T09:27:28;4.07;;;1.02;;
68273;SDS011;55104;47.356;19.448;2024-01-07T09:30:30;4.83;;;1.60;;
68273;SDS011;55104;47.356;19.448;2024-01-07T09:33:33;4.05;;;1.00;;
68273;SDS011;55104;47.356;19.448;2024-01-07T09:36:35;3.17;;;1.25;;
68273;SDS011;55104;47.356;19.448;2024-01-07T09:39:38;5.53;;;1.10;;
68273;SDS011;55104;47.356;19.448;2024-01-07T09:42:43;5.80;;;1.75;;
68273;SDS011;55104;47.356;19.448;2024-01-07T09:45:46;6.00;;;1.73;;
68273;SDS011;55104;47.356;19.448;2024-01-07T09:48:52;6.25;;;2.60;;
68273;SDS011;55104;47.356;19.448;2024-01-07T09:51:56;4.20;;;1.10;;
68273;SDS011;55104;47.356;19.448;2024-01-07T09:55:03;3.80;;;1.08;;
68273;SDS011;55104;47.356;19.448;2024-01-07T09:58:05;3.53;;;1.05;;
68273;SDS011;55104;47.356;19.448;2024-01-07T10:01:08;3.30;;;1.10;;
68273;SDS011;55104;47.356;19.448;2024-01-07T10:04:12;4.18;;;1.42;;
68273;SDS011;55104;47.356;19.448;2024-01-07T10:07:14;7.05;;;2.45;;
68273;SDS011;55104;47.356;19.448;2024-01-07T10:10:17;8.40;;;2.23;;
68273;SDS011;55104;47.356;19.448;2024-01-07T10:13:20;4.53;;;1.52;;
68273;SDS011;55104;47.356;19.448;2024-01-07T10:16:24;6.03;;;2.00;;
68273;SDS011;55104;47.356;19.448;2024-01-07T10:19:26;4.88;;;2.08;;
68273;SDS011;55104;47.356;19.448;2024-01-07T10:22:29;5.00;;;2.17;;
68273;SDS011;55104;47.356;19.448;2024-01-07T10:25:33;11.23;;;2.67;;
68273;SDS011;55104;47.356;19.448;2024-01-07T10:28:37;6.28;;;2.55;;
68273;SDS011;55104;47.356;19.448;2024-01-07T10:31:39;12.03;;;5.50;;
68273;SDS011;55104;47.356;19.448;2024-01-07T10:34:42;11.52;;;5.93;;
68273;SDS011;55104;47.356;19.448;2024-01-07T10:37:51;14.18;;;5.80;;
68273;SDS011;55104;47.356;19.448;2024-01-07T10:40:54;9.73;;;5.37;;
68273;SDS011;55104;47.356;19.448;2024-01-07T10:44:00;13.32;;;5.47;;
68273;SDS011;55104;47.356;19.448;2024-01-07T10:47:03;7.38;;;2.92;;
68273;SDS011;55104;47.356;19.448;2024-01-07T10:50:10;6.75;;;3.13;;
68273;SDS011;55104;47.356;19.448;2024-01-07T10:53:20;8.38;;;3.40;;
68273;SDS011;55104;47.356;19.448;2024-01-07T10:56:23;13.80;;;5.43;;
68273;SDS011;55104;47.356;19.448;2024-01-07T10:59:27;9.68;;;4.38;;
68273;SDS011;55104;47.356;19.448;2024-01-07T11:02:32;7.30;;;2.60;;
68273;SDS011;55104;47.356;19.448;2024-01-07T11:09:21;16.17;;;5.35;;
68273;SDS011;55104;47.356;19.448;2024-01-07T11:12:37;8.40;;;3.93;;
68273;SDS011;55104;47.356;19.448;2024-01-07T11:18:54;7.72;;;3.90;;
68273;SDS011;55104;47.356;19.448;2024-01-07T11:25:30;7.05;;;1.95;;
68273;SDS011;55104;47.356;19.448;2024-01-07T11:31:56;5.97;;;1.65;;
68273;SDS011;55104;47.356;19.448;2024-01-07T11:34:58;4.07;;;1.67;;
68273;SDS011;55104;47.356;19.448;2024-01-07T11:38:03;3.08;;;0.88;;
68273;SDS011;55104;47.356;19.448;2024-01-07T11:41:05;4.95;;;1.63;;
68273;SDS011;55104;47.356;19.448;2024-01-07T11:44:11;5.80;;;2.53;;
68273;SDS011;55104;47.356;19.448;2024-01-07T11:47:16;7.25;;;2.53;;
68273;SDS011;55104;47.356;19.448;2024-01-07T11:50:19;9.25;;;2.83;;
68273;SDS011;55104;47.356;19.448;2024-01-07T11:53:21;11.18;;;4.53;;
68273;SDS011;55104;47.356;19.448;2024-01-07T11:56:24;10.32;;;3.88;;
68273;SDS011;55104;47.356;19.448;2024-01-07T11:59:28;8.82;;;2.75;;
68273;SDS011;55104;47.356;19.448;2024-01-07T12:02:31;6.13;;;2.17;;
68273;SDS011;55104;47.356;19.448;2024-01-07T12:05:34;10.03;;;2.57;;
68273;SDS011;55104;47.356;19.448;2024-01-07T12:08:38;6.95;;;2.15;;
68273;SDS011;55104;47.356;19.448;2024-01-07T12:11:42;11.55;;;2.85;;
68273;SDS011;55104;47.356;19.448;2024-01-07T12:14:46;12.70;;;3.50;;
68273;SDS011;55104;47.356;19.448;2024-01-07T12:17:58;4.55;;;1.33;;
68273;SDS011;55104;47.356;19.448;2024-01-07T12:21:03;8.38;;;2.90;;
68273;SDS011;55104;47.356;19.448;2024-01-07T12:24:07;9.15;;;2.95;;
68273;SDS011;55104;47.356;19.448;2024-01-07T12:27:09;8.05;;;2.85;;
68273;SDS011;55104;47.356;19.448;2024-01-07T12:30:11;6.88;;;2.85;;
68273;SDS011;55104;47.356;19.448;2024-01-07T12:33:18;4.00;;;1.85;;
68273;SDS011;55104;47.356;19.448;2024-01-07T12:36:22;6.77;;;2.10;;
68273;SDS011;55104;47.356;19.448;2024-01-07T12:39:24;4.40;;;1.70;;
68273;SDS011;55104;47.356;19.448;2024-01-07T12:42:30;9.02;;;3.20;;
68273;SDS011;55104;47.356;19.448;2024-01-07T12:45:32;12.60;;;4.30;;
68273;SDS011;55104;47.356;19.448;2024-01-07T12:48:35;10.60;;;4.00;;
68273;SDS011;55104;47.356;19.448;2024-01-07T12:51:37;10.45;;;3.10;;
68273;SDS011;55104;47.356;19.448;2024-01-07T12:54:39;9.77;;;3.17;;
68273;SDS011;55104;47.356;19.448;2024-01-07T12:57:41;8.68;;;2.40;;
68273;SDS011;55104;47.356;19.448;2024-01-07T13:00:43;7.63;;;2.67;;
68273;SDS011;55104;47.356;19.448;2024-01-07T13:03:46;9.55;;;3.00;;
68273;SDS011;55104;47.356;19.448;2024-01-07T13:06:51;6.70;;;2.70;;
68273;SDS011;55104;47.356;19.448;2024-01-07T13:09:53;4.93;;;1.77;;
68273;SDS011;55104;47.356;19.448;2024-01-07T13:12:56;8.88;;;2.03;;
68273;SDS011;55104;47.356;19.448;2024-01-07T13:16:09;4.50;;;1.87;;
68273;SDS011;55104;47.356;19.448;2024-01-07T13:19:13;6.68;;;1.80;;
68273;SDS011;55104;47.356;19.448;2024-01-07T13:22:17;6.80;;;1.90;;
68273;SDS011;55104;47.356;19.448;2024-01-07T13:25:19;7.55;;;1.58;;
68273;SDS011;55104;47.356;19.448;2024-01-07T13:28:22;9.90;;;3.60;;
68273;SDS011;55104;47.356;19.448;2024-01-07T13:31:24;8.23;;;2.95;;
68273;SDS011;55104;47.356;19.448;2024-01-07T13:34:27;6.32;;;1.98;;
68273;SDS011;55104;47.356;19.448;2024-01-07T13:37:30;6.47;;;2.43;;
68273;SDS011;55104;47.356;19.448;2024-01-07T13:40:35;5.28;;;1.60;;
68273;SDS011;55104;47.356;19.448;2024-01-07T13:43:37;9.05;;;2.38;;
68273;SDS011;55104;47.356;19.448;2024-01-07T13:46:46;3.80;;;1.40;;
68273;SDS011;55104;47.356;19.448;2024-01-07T13:49:48;6.20;;;2.22;;
68273;SDS011;55104;47.356;19.448;2024-01-07T13:52:51;3.92;;;1.13;;
68273;SDS011;55104;47.356;19.448;2024-01-07T13:55:54;4.03;;;1.27;;
68273;SDS011;55104;47.356;19.448;2024-01-07T13:58:58;5.45;;;1.85;;
68273;SDS011;55104;47.356;19.448;2024-01-07T14:02:00;5.18;;;1.73;;
68273;SDS011;55104;47.356;19.448;2024-01-07T14:05:05;5.93;;;1.45;;
68273;SDS011;55104;47.356;19.448;2024-01-07T14:08:11;3.80;;;1.40;;
68273;SDS011;55104;47.356;19.448;2024-01-07T14:11:24;3.38;;;0.90;;
68273;SDS011;55104;47.356;19.448;2024-01-07T14:14:29;6.07;;;1.60;;
68273;SDS011;55104;47.356;19.448;2024-01-07T14:17:32;2.93;;;1.03;;
68273;SDS011;55104;47.356;19.448;2024-01-07T14:20:34;4.43;;;1.40;;
68273;SDS011;55104;47.356;19.448;2024-01-07T14:23:40;4.68;;;1.58;;
68273;SDS011;55104;47.356;19.448;2024-01-07T14:27:07;7.40;;;2.08;;
68273;SDS011;55104;47.356;19.448;2024-01-07T14:31:06;6.45;;;2.42;;
68273;SDS011;55104;47.356;19.448;2024-01-07T14:34:10;9.02;;;3.25;;
68273;SDS011;55104;47.356;19.448;2024-01-07T14:37:12;8.80;;;3.13;;
68273;SDS011;55104;47.356;19.448;2024-01-07T14:40:15;7.60;;;2.90;;
68273;SDS011;55104;47.356;19.448;2024-01-07T14:43:18;7.93;;;2.85;;
68273;SDS011;55104;47.356;19.448;2024-01-07T14:46:21;5.72;;;2.33;;
68273;SDS011;55104;47.356;19.448;2024-01-07T14:49:23;8.03;;;3.10;;
68273;SDS011;55104;47.356;19.448;2024-01-07T14:52:26;5.20;;;2.00;;
68273;SDS011;55104;47.356;19.448;2024-01-07T14:55:29;4.93;;;1.27;;
68273;SDS011;55104;47.356;19.448;2024-01-07T14:58:32;6.32;;;2.30;;
68273;SDS011;55104;47.356;19.448;2024-01-07T15:01:34;2.70;;;0.95;;
68273;SDS011;55104;47.356;19.448;2024-01-07T15:04:36;3.13;;;0.80;;
68273;SDS011;55104;47.356;19.448;2024-01-07T15:07:39;4.05;;;1.45;;
68273;SDS011;55104;47.356;19.448;2024-01-07T15:10:42;4.57;;;1.77;;
68273;SDS011;55104;47.356;19.448;2024-01-07T15:13:44;10.48;;;2.15;;
68273;SDS011;55104;47.356;19.448;2024-01-07T15:16:47;2.20;;;0.60;;
68273;SDS011;55104;47.356;19.448;2024-01-07T15:19:56;3.90;;;1.23;;
68273;SDS011;55104;47.356;19.448;2024-01-07T15:22:58;4.25;;;1.33;;
68273;SDS011;55104;47.356;19.448;2024-01-07T15:26:01;3.85;;;1.70;;
68273;SDS011;55104;47.356;19.448;2024-01-07T15:29:03;3.60;;;1.15;;
68273;SDS011;55104;47.356;19.448;2024-01-07T15:32:05;7.38;;;3.30;;
68273;SDS011;55104;47.356;19.448;2024-01-07T15:35:07;6.38;;;2.72;;
68273;SDS011;55104;47.356;19.448;2024-01-07T15:38:11;4.82;;;1.48;;
68273;SDS011;55104;47.356;19.448;2024-01-07T15:41:13;5.30;;;1.47;;
68273;SDS011;55104;47.356;19.448;2024-01-07T15:44:16;3.45;;;1.05;;
68273;SDS011;55104;47.356;19.448;2024-01-07T15:47:18;6.80;;;2.13;;
68273;SDS011;55104;47.356;19.448;2024-01-07T15:50:21;7.10;;;2.27;;
68273;SDS011;55104;47.356;19.448;2024-01-07T15:53:24;7.20;;;2.78;;
68273;SDS011;55104;47.356;19.448;2024-01-07T15:56:33;5.95;;;2.20;;
68273;SDS011;55104;47.356;19.448;2024-01-07T15:59:35;5.70;;;2.35;;
68273;SDS011;55104;47.356;19.448;2024-01-07T16:02:38;5.97;;;1.73;;
68273;SDS011;55104;47.356;19.448;2024-01-07T16:05:40;4.10;;;1.10;;
68273;SDS011;55104;47.356;19.448;2024-01-07T16:08:42;8.10;;;2.38;;
68273;SDS011;55104;47.356;19.448;2024-01-07T16:11:45;9.13;;;2.60;;
68273;SDS011;55104;47.356;19.448;2024-01-07T16:14:47;5.75;;;1.95;;
68273;SDS011;55104;47.356;19.448;2024-01-07T16:17:50;6.43;;;2.40;;
68273;SDS011;55104;47.356;19.448;2024-01-07T16:20:52;3.13;;;1.20;;
68273;SDS011;55104;47.356;19.448;2024-01-07T16:23:55;4.90;;;1.40;;
68273;SDS011;55104;47.356;19.448;2024-01-07T16:26:57;9.18;;;1.73;;
68273;SDS011;55104;47.356;19.448;2024-01-07T16:30:00;6.88;;;2.95;;
68273;SDS011;55104;47.356;19.448;2024-01-07T16:33:06;11.88;;;5.05;;
68273;SDS011;55104;47.356;19.448;2024-01-07T16:36:11;23.35;;;6.78;;
68273;SDS011;55104;47.356;19.448;2024-01-07T16:39:13;13.95;;;4.90;;
68273;SDS011;55104;47.356;19.448;2024-01-07T16:42:15;16.00;;;5.63;;
68273;SDS011;55104;47.356;19.448;2024-01-07T16:45:17;12.85;;;4.22;;
68273;SDS011;55104;47.356;19.448;2024-01-07T16:48:21;9.48;;;3.63;;
68273;SDS011;55104;47.356;19.448;2024-01-07T16:51:26;10.07;;;3.47;;
68273;SDS011;55104;47.356;19.448;2024-01-07T16:54:29;16.20;;;4.78;;
68273;SDS011;55104;47.356;19.448;2024-01-07T16:57:31;11.07;;;4.15;;
68273;SDS011;55104;47.356;19.448;2024-01-07T17:00:34;8.80;;;3.67;;
68273;SDS011;55104;47.356;19.448;2024-01-07T17:03:37;13.70;;;5.60;;
68273;SDS011;55104;47.356;19.448;2024-01-07T17:06:39;15.05;;;5.60;;
68273;SDS011;55104;47.356;19.448;2024-01-07T17:09:42;12.35;;;5.82;;
68273;SDS011;55104;47.356;19.448;2024-01-07T17:12:45;13.63;;;5.33;;
68273;SDS011;55104;47.356;19.448;2024-01-07T17:15:47;9.30;;;4.75;;
68273;SDS011;55104;47.356;19.448;2024-01-07T17:18:49;14.18;;;5.25;;
68273;SDS011;55104;47.356;19.448;2024-01-07T17:21:52;11.37;;;4.10;;
68273;SDS011;55104;47.356;19.448;2024-01-07T17:24:54;10.43;;;4.20;;
68273;SDS011;55104;47.356;19.448;2024-01-07T17:27:57;9.45;;;3.80;;
68273;SDS011;55104;47.356;19.448;2024-01-07T17:30:59;9.27;;;4.13;;
68273;SDS011;55104;47.356;19.448;2024-01-07T17:34:02;9.82;;;4.20;;
68273;SDS011;55104;47.356;19.448;2024-01-07T17:37:04;10.10;;;4.38;;
68273;SDS011;55104;47.356;19.448;2024-01-07T17:40:07;8.57;;;4.13;;
68273;SDS011;55104;47.356;19.448;2024-01-07T17:43:10;8.40;;;3.30;;
68273;SDS011;55104;47.356;19.448;2024-01-07T17:46:12;12.50;;;5.55;;
68273;SDS011;55104;47.356;19.448;2024-01-07T17:49:14;8.18;;;2.95;;
68273;SDS011;55104;47.356;19.448;2024-01-07T17:52:16;7.83;;;3.40;;
68273;SDS011;55104;47.356;19.448;2024-01-07T17:55:19;6.03;;;2.05;;
68273;SDS011;55104;47.356;19.448;2024-01-07T17:58:22;6.78;;;2.60;;
68273;SDS011;55104;47.356;19.448;2024-01-07T18:01:30;5.43;;;2.05;;
68273;SDS011;55104;47.356;19.448;2024-01-07T18:04:32;4.13;;;1.60;;
68273;SDS011;55104;47.356;19.448;2024-01-07T18:07:35;3.30;;;0.95;;
68273;SDS011;55104;47.356;19.448;2024-01-07T18:10:37;5.75;;;2.10;;
68273;SDS011;55104;47.356;19.448;2024-01-07T18:13:39;8.03;;;3.13;;
68273;SDS011;55104;47.356;19.448;2024-01-07T18:16:42;8.07;;;2.88;;